createdAt,value
2023-04-21T00:02:07.687Z,99451.64
2023-04-21T00:04:36.063Z,99449.02
2023-04-21T00:07:04.606Z,99447.10
2023-04-21T00:09:32.248Z,99446.74
2023-04-21T00:12:00.032Z,99443.42
2023-04-21T00:14:27.688Z,99444.64
2023-04-21T00:16:55.391Z,99441.70
2023-04-21T00:19:24.136Z,99444.35
2023-04-21T00:21:51.801Z,99440.88
2023-04-21T00:24:19.465Z,99440.02
2023-04-21T00:26:47.124Z,99441.08
2023-04-21T00:29:14.907Z,99440.58
2023-04-21T00:31:42.580Z,99438.68
2023-04-21T00:34:10.317Z,99441.48
2023-04-21T00:36:37.981Z,99439.60
2023-04-21T00:39:05.850Z,99439.96
2023-04-21T00:41:34.337Z,99441.39
2023-04-21T00:44:02.110Z,99437.59
2023-04-21T00:46:29.869Z,99440.42
2023-04-21T00:48:57.503Z,99438.20
2023-04-21T00:51:25.176Z,99438.06
2023-04-21T00:53:52.942Z,99439.64
2023-04-21T00:56:21.830Z,99439.65
2023-04-21T00:58:50.826Z,99435.62
2023-04-21T01:01:18.510Z,99436.65
2023-04-21T01:03:47.911Z,99431.59
2023-04-21T01:06:15.856Z,99432.83
2023-04-21T01:08:43.618Z,99430.73
2023-04-21T01:11:11.384Z,99430.39
2023-04-21T01:13:39.150Z,99427.61
2023-04-21T01:16:07.093Z,99429.54
2023-04-21T01:18:34.986Z,99429.18
2023-04-21T01:21:02.749Z,99428.67
2023-04-21T01:23:30.514Z,99431.66
2023-04-21T01:25:58.176Z,99431.00
2023-04-21T01:28:25.850Z,99434.50
2023-04-21T01:30:53.619Z,99430.84
2023-04-21T01:33:21.675Z,99431.38
2023-04-21T01:35:49.334Z,99433.48
2023-04-21T01:38:19.729Z,99431.54
2023-04-21T01:40:47.640Z,99433.30
2023-04-21T01:43:15.292Z,99428.61
2023-04-21T01:45:43.044Z,99430.52
2023-04-21T01:48:10.937Z,99426.02
2023-04-21T01:50:38.686Z,99424.41
2023-04-21T01:53:06.977Z,99423.89
2023-04-21T01:55:34.729Z,99426.52
2023-04-21T01:58:02.373Z,99428.09
2023-04-21T02:00:30.064Z,99425.66
2023-04-21T02:02:57.945Z,99423.76
2023-04-21T02:05:25.991Z,99423.06
2023-04-21T02:07:53.651Z,99425.00
2023-04-21T02:10:21.420Z,99424.30
2023-04-21T02:12:49.192Z,99428.48
2023-04-21T02:15:16.942Z,99427.61
2023-04-21T02:17:45.308Z,99428.11
2023-04-21T02:20:13.524Z,99431.44
2023-04-21T02:22:41.372Z,99433.87
2023-04-21T02:25:09.225Z,99433.00
2023-04-21T02:27:36.890Z,99436.65
2023-04-21T02:30:04.549Z,99434.05
2023-04-21T02:32:32.833Z,99438.04
2023-04-21T02:35:00.607Z,99438.21
2023-04-21T02:37:28.354Z,99436.65
2023-04-21T02:39:56.015Z,99431.93
2023-04-21T02:42:23.677Z,99431.06
2023-04-21T02:44:51.337Z,99430.90
2023-04-21T02:47:19.103Z,99432.11
2023-04-21T02:49:46.869Z,99432.27
2023-04-21T02:52:14.543Z,99432.61
2023-04-21T02:54:42.400Z,99432.94
2023-04-21T02:57:10.174Z,99432.27
2023-04-21T02:59:37.921Z,99434.52
2023-04-21T03:02:05.647Z,99432.94
2023-04-21T03:04:34.331Z,99433.98
2023-04-21T03:07:02.396Z,99438.14
2023-04-21T03:09:30.107Z,99439.86
2023-04-21T03:11:57.768Z,99445.59
2023-04-21T03:14:25.670Z,99447.15
2023-04-21T03:16:53.626Z,99444.54
2023-04-21T03:19:21.835Z,99445.77
2023-04-21T03:21:49.744Z,99442.98
2023-04-21T03:24:17.407Z,99441.55
2023-04-21T03:26:45.077Z,99437.91
2023-04-21T03:29:12.730Z,99441.05
2023-04-21T03:31:40.414Z,99441.73
2023-04-21T03:34:08.259Z,99446.77
2023-04-21T03:36:36.236Z,99454.07
2023-04-21T03:39:20.233Z,99455.62
2023-04-21T03:41:48.490Z,99454.04
2023-04-21T03:44:16.209Z,99453.85
2023-04-21T03:46:43.878Z,99454.02
2023-04-21T03:49:11.636Z,99452.64
2023-04-21T03:51:39.301Z,99452.13
2023-04-21T03:54:07.268Z,99453.31
2023-04-21T03:56:34.931Z,99456.42
2023-04-21T03:59:02.590Z,99453.47
2023-04-21T04:01:30.251Z,99456.94
2023-04-21T04:03:58.069Z,99461.10
2023-04-21T04:06:26.805Z,99461.95
2023-04-21T04:08:54.569Z,99462.28
2023-04-21T04:11:22.232Z,99462.97
2023-04-21T04:13:49.901Z,99459.30
2023-04-21T04:16:18.419Z,99459.83
2023-04-21T04:18:46.237Z,99465.58
2023-04-21T04:21:13.903Z,99465.77
2023-04-21T04:23:41.812Z,99466.45
2023-04-21T04:26:09.647Z,99470.29
2023-04-21T04:28:37.407Z,99472.56
2023-04-21T04:31:05.089Z,99475.69
2023-04-21T04:33:32.849Z,99476.75
2023-04-21T04:36:00.502Z,99478.14
2023-04-21T04:38:28.766Z,99477.13
2023-04-21T04:40:57.759Z,99477.98
2023-04-21T04:43:25.719Z,99477.33
2023-04-21T04:45:53.587Z,99479.44
2023-04-21T04:48:21.454Z,99484.34
2023-04-21T04:50:49.221Z,99485.57
2023-04-21T04:53:16.986Z,99489.92
2023-04-21T04:55:44.647Z,99484.73
2023-04-21T04:58:12.305Z,99479.72
2023-04-21T05:00:39.974Z,99486.70
2023-04-21T05:03:07.861Z,99485.16
2023-04-21T05:05:35.804Z,99485.16
2023-04-21T05:08:03.476Z,99479.95
2023-04-21T05:10:31.335Z,99480.32
2023-04-21T05:12:58.991Z,99481.55
2023-04-21T05:15:26.661Z,99471.81
2023-04-21T05:17:54.382Z,99472.52
2023-04-21T05:20:22.193Z,99472.69
2023-04-21T05:22:49.952Z,99470.59
2023-04-21T05:25:17.631Z,99470.43
2023-04-21T05:27:45.481Z,99470.60
2023-04-21T05:30:13.253Z,99474.43
2023-04-21T05:32:41.357Z,99472.87
2023-04-21T05:35:09.176Z,99475.81
2023-04-21T05:37:36.842Z,99471.29
2023-04-21T05:40:04.520Z,99472.86
2023-04-21T05:42:32.269Z,99471.83
2023-04-21T05:45:00.041Z,99474.95
2023-04-21T05:47:27.819Z,99478.77
2023-04-21T05:49:55.985Z,99476.84
2023-04-21T05:52:23.770Z,99481.02
2023-04-21T05:54:51.518Z,99483.44
2023-04-21T05:57:19.271Z,99481.34
2023-04-21T05:59:47.028Z,99484.65
2023-04-21T06:02:14.844Z,99483.23
2023-04-21T06:04:42.750Z,99483.05
2023-04-21T06:07:13.286Z,99475.54
2023-04-21T06:09:41.470Z,99475.53
2023-04-21T06:12:09.222Z,99476.22
2023-04-21T06:14:36.984Z,99477.08
2023-04-21T06:17:04.649Z,99482.12
2023-04-21T06:19:32.308Z,99481.42
2023-04-21T06:22:00.121Z,99481.93
2023-04-21T06:24:27.941Z,99482.95
2023-04-21T06:26:56.421Z,99483.83
2023-04-21T06:29:24.081Z,99481.72
2023-04-21T06:31:51.809Z,99479.79
2023-04-21T06:34:21.167Z,99474.55
2023-04-21T06:36:49.018Z,99474.54
2023-04-21T06:39:16.674Z,99472.09
2023-04-21T06:41:44.343Z,99471.90
2023-04-21T06:44:15.182Z,99476.23
2023-04-21T06:46:42.881Z,99479.34
2023-04-21T06:49:10.811Z,99474.97
2023-04-21T06:51:38.577Z,99476.33
2023-04-21T06:54:06.532Z,99478.59
2023-04-21T06:56:34.970Z,99475.09
2023-04-21T06:59:02.580Z,99472.79
2023-04-21T07:01:30.379Z,99474.88
2023-04-21T07:03:58.201Z,99476.24
2023-04-21T07:06:26.075Z,99474.66
2023-04-21T07:08:53.844Z,99475.67
2023-04-21T07:11:21.504Z,99475.65
2023-04-21T07:13:49.161Z,99475.98
2023-04-21T07:16:16.846Z,99478.56
2023-04-21T07:18:44.593Z,99475.41
2023-04-21T07:21:12.356Z,99471.70
2023-04-21T07:23:40.022Z,99469.94
2023-04-21T07:26:07.782Z,99469.91
2023-04-21T07:28:35.544Z,99471.11
2023-04-21T07:31:03.714Z,99470.59
2023-04-21T07:33:31.696Z,99473.17
2023-04-21T07:35:59.457Z,99476.27
2023-04-21T07:38:30.589Z,99473.27
2023-04-21T07:40:58.373Z,99470.78
2023-04-21T07:43:27.051Z,99471.61
2023-04-21T07:45:54.723Z,99461.45
2023-04-21T07:48:22.471Z,99463.64
2023-04-21T07:50:50.846Z,99459.05
2023-04-21T07:53:18.618Z,99461.44
2023-04-21T07:55:46.588Z,99464.00
2023-04-21T07:58:14.413Z,99464.83
2023-04-21T08:00:42.208Z,99465.30
2023-04-21T08:03:10.033Z,99466.98
2023-04-21T08:05:40.783Z,99469.02
2023-04-21T08:08:09.412Z,99464.73
2023-04-21T08:10:37.288Z,99466.24
2023-04-21T08:13:06.661Z,99462.83
2023-04-21T08:15:35.042Z,99463.95
2023-04-21T08:18:02.855Z,99461.91
2023-04-21T08:20:30.772Z,99459.38
2023-04-21T08:22:58.508Z,99457.54
2023-04-21T08:25:26.404Z,99456.77
2023-04-21T08:27:54.064Z,99456.17
2023-04-21T08:30:21.724Z,99455.08
2023-04-21T08:32:49.468Z,99457.29
2023-04-21T08:35:17.313Z,99452.10
2023-04-21T08:37:45.861Z,99451.30
2023-04-21T08:40:13.804Z,99451.00
2023-04-21T08:42:41.469Z,99448.23
2023-04-21T08:45:09.233Z,99446.02
2023-04-21T08:47:37.053Z,99446.63
2023-04-21T08:50:04.863Z,99443.88
2023-04-21T08:52:32.528Z,99441.30
2023-04-21T08:55:00.188Z,99438.58
2023-04-21T08:57:27.849Z,99434.81
2023-04-21T08:59:55.613Z,99427.64
2023-04-21T09:02:23.594Z,99430.84
2023-04-21T09:04:52.398Z,99427.72
2023-04-21T09:07:20.955Z,99428.11
2023-04-21T09:09:48.616Z,99422.66
2023-04-21T09:12:16.278Z,99423.04
2023-04-21T09:14:43.954Z,99418.35
2023-04-21T09:17:11.731Z,99418.67
2023-04-21T09:19:39.471Z,99413.73
2023-04-21T09:22:07.233Z,99406.91
2023-04-21T09:24:35.002Z,99409.88
2023-04-21T09:27:02.669Z,99408.76
2023-04-21T09:29:30.325Z,99408.32
2023-04-21T09:31:58.196Z,99405.98
2023-04-21T09:34:25.958Z,99403.48
2023-04-21T09:36:53.611Z,99410.27
2023-04-21T09:39:38.328Z,99401.70
2023-04-21T09:42:08.904Z,99394.39
2023-04-21T09:44:50.360Z,99395.70
2023-04-21T09:47:22.382Z,99396.02
2023-04-21T09:49:50.126Z,99395.64
2023-04-21T09:52:19.609Z,99389.57
2023-04-21T09:54:47.701Z,99394.81
2023-04-21T09:57:15.458Z,99390.15
2023-04-21T09:59:43.119Z,99394.61
2023-04-21T10:02:11.301Z,99390.08
2023-04-21T10:04:39.597Z,99391.50
2023-04-21T10:07:07.654Z,99383.81
2023-04-21T10:09:36.031Z,99383.87
2023-04-21T10:12:04.012Z,99383.52
2023-04-21T10:14:31.760Z,99384.92
2023-04-21T10:16:59.426Z,99380.10
2023-04-21T10:19:27.194Z,99381.66
2023-04-21T10:21:54.838Z,99378.89
2023-04-21T10:24:22.654Z,99376.56
2023-04-21T10:26:51.924Z,99376.82
2023-04-21T10:29:21.293Z,99367.08
2023-04-21T10:31:49.198Z,99371.30
2023-04-21T10:34:17.459Z,99368.27
2023-04-21T10:36:45.231Z,99366.58
2023-04-21T10:39:13.383Z,99367.00
2023-04-21T10:41:41.151Z,99369.64
2023-04-21T10:44:08.784Z,99364.58
2023-04-21T10:46:36.740Z,99358.72
2023-04-21T10:49:04.652Z,99362.28
2023-04-21T10:51:33.347Z,99360.02
2023-04-21T10:54:01.512Z,99352.84
2023-04-21T10:56:29.168Z,99348.13
2023-04-21T10:58:57.041Z,99353.55
2023-04-21T11:01:25.250Z,99348.67
2023-04-21T11:03:54.917Z,99348.14
2023-04-21T11:06:22.787Z,99351.68
2023-04-21T11:08:51.571Z,99352.80
2023-04-21T11:11:19.232Z,99343.62
2023-04-21T11:13:46.894Z,99344.89
2023-04-21T11:16:14.791Z,99347.40
2023-04-21T11:18:42.833Z,99344.98
2023-04-21T11:21:10.698Z,99340.37
2023-04-21T11:23:38.369Z,99338.99
2023-04-21T11:26:06.123Z,99343.29
2023-04-21T11:28:33.992Z,99337.64
2023-04-21T11:31:01.814Z,99336.21
2023-04-21T11:33:30.455Z,99334.90
2023-04-21T11:35:59.280Z,99330.92
2023-04-21T11:38:27.094Z,99325.43
2023-04-21T11:40:55.278Z,99319.70
2023-04-21T11:43:23.139Z,99324.36
2023-04-21T11:45:51.711Z,99324.02
2023-04-21T11:48:19.928Z,99327.18
2023-04-21T11:50:47.765Z,99325.19
2023-04-21T11:53:15.832Z,99324.73
2023-04-21T11:55:43.905Z,99323.78
2023-04-21T11:58:12.370Z,99318.86
2023-04-21T12:00:41.069Z,99317.89
2023-04-21T12:03:08.997Z,99310.91
2023-04-21T12:05:37.044Z,99314.02
2023-04-21T12:08:06.518Z,99316.64
2023-04-21T12:10:34.283Z,99307.15
2023-04-21T12:13:02.141Z,99306.89
2023-04-21T12:15:29.810Z,99307.96
2023-04-21T12:17:57.491Z,99306.38
2023-04-21T12:20:25.241Z,99308.49
2023-04-21T12:22:53.613Z,99302.55
2023-04-21T12:25:21.276Z,99297.60
2023-04-21T12:27:49.237Z,99293.42
2023-04-21T12:30:17.317Z,99287.56
2023-04-21T12:32:45.115Z,99285.27
2023-04-21T12:35:12.846Z,99284.05
2023-04-21T12:37:40.808Z,99284.98
2023-04-21T12:40:08.605Z,99287.45
2023-04-21T12:42:38.170Z,99282.15
2023-04-21T12:45:06.752Z,99281.11
2023-04-21T12:47:34.606Z,99278.21
2023-04-21T12:50:02.402Z,99279.39
2023-04-21T12:52:30.157Z,99279.03
2023-04-21T12:54:57.816Z,99274.09
2023-04-21T12:57:25.584Z,99271.86
2023-04-21T12:59:53.262Z,99274.62
2023-04-21T13:02:21.002Z,99266.85
2023-04-21T13:04:48.872Z,99263.21
2023-04-21T13:07:16.539Z,99265.39
2023-04-21T13:09:44.303Z,99260.60
2023-04-21T13:12:12.371Z,99257.55
2023-04-21T13:14:40.141Z,99250.91
2023-04-21T13:17:07.854Z,99247.81
2023-04-21T13:19:35.885Z,99246.69
2023-04-21T13:22:03.731Z,99243.85
2023-04-21T13:24:31.496Z,99244.94
2023-04-21T13:26:59.170Z,99248.98
2023-04-21T13:29:30.433Z,99240.98
2023-04-21T13:31:58.382Z,99239.80
2023-04-21T13:34:26.149Z,99239.11
2023-04-21T13:36:54.026Z,99239.00
2023-04-21T13:39:22.861Z,99235.61
2023-04-21T13:41:53.554Z,99228.96
2023-04-21T13:44:22.019Z,99229.80
2023-04-21T13:46:52.495Z,99225.95
2023-04-21T13:49:21.138Z,99222.55
2023-04-21T13:51:48.899Z,99220.17
2023-04-21T13:54:16.668Z,99216.29
2023-04-21T13:56:44.457Z,99212.23
2023-04-21T13:59:14.968Z,99209.50
2023-04-21T14:01:42.757Z,99204.39
2023-04-21T14:04:11.040Z,99207.88
2023-04-21T14:06:38.848Z,99207.15
2023-04-21T14:09:06.651Z,99206.54
2023-04-21T14:11:34.406Z,99206.36
2023-04-21T14:14:09.508Z,99202.02
2023-04-21T14:16:38.649Z,99201.70
2023-04-21T14:19:06.986Z,99199.75
2023-04-21T14:21:34.921Z,99203.17
2023-04-21T14:24:02.722Z,99194.24
2023-04-21T14:26:30.588Z,99199.13
2023-04-21T14:29:00.239Z,99199.24
2023-04-21T14:31:27.880Z,99196.86
2023-04-21T14:33:55.858Z,99195.77
2023-04-21T14:36:23.594Z,99194.27
2023-04-21T14:38:51.296Z,99191.15
2023-04-21T14:41:18.950Z,99190.69
2023-04-21T14:43:47.687Z,99185.00
2023-04-21T14:46:17.689Z,99190.05
2023-04-21T14:48:45.599Z,99186.37
2023-04-21T14:51:13.347Z,99182.63
2023-04-21T14:53:41.148Z,99184.39
2023-04-21T14:56:08.783Z,99183.63
2023-04-21T14:58:36.437Z,99179.91
2023-04-21T15:01:04.628Z,99178.05
2023-04-21T15:03:32.683Z,99175.10
2023-04-21T15:06:00.600Z,99171.39
2023-04-21T15:08:28.509Z,99166.64
2023-04-21T15:10:56.977Z,99168.08
2023-04-21T15:13:24.671Z,99165.55
2023-04-21T15:15:52.350Z,99162.44
2023-04-21T15:18:21.215Z,99164.47
2023-04-21T15:20:48.998Z,99160.71
2023-04-21T15:23:16.748Z,99160.08
2023-04-21T15:25:44.525Z,99161.90
2023-04-21T15:28:13.297Z,99158.23
2023-04-21T15:30:41.089Z,99156.85
2023-04-21T15:33:08.963Z,99158.95
2023-04-21T15:35:36.712Z,99156.17
2023-04-21T15:38:06.253Z,99156.55
2023-04-21T15:40:34.307Z,99155.92
2023-04-21T15:43:02.589Z,99156.24
2023-04-21T15:45:30.350Z,99153.87
2023-04-21T15:47:58.161Z,99153.39
2023-04-21T15:50:26.150Z,99151.55
2023-04-21T15:52:53.832Z,99153.42
2023-04-21T15:55:21.792Z,99150.27
2023-04-21T15:57:49.558Z,99152.38
2023-04-21T16:00:17.407Z,99146.52
2023-04-21T16:02:45.237Z,99148.66
2023-04-21T16:05:13.302Z,99150.25
2023-04-21T16:07:43.487Z,99147.59
2023-04-21T16:10:11.634Z,99144.94
2023-04-21T16:12:39.465Z,99145.51
2023-04-21T16:15:22.970Z,99145.15
2023-04-21T16:17:51.835Z,99145.12
2023-04-21T16:20:19.743Z,99144.88
2023-04-21T16:22:47.501Z,99145.30
2023-04-21T16:25:17.522Z,99139.90
2023-04-21T16:27:45.765Z,99143.16
2023-04-21T16:30:13.739Z,99142.02
2023-04-21T16:32:41.810Z,99141.27
2023-04-21T16:35:10.258Z,99139.59
2023-04-21T16:37:40.415Z,99138.88
2023-04-21T16:40:09.004Z,99141.48
2023-04-21T16:42:36.904Z,99138.78
2023-04-21T16:45:04.879Z,99136.22
2023-04-21T16:47:34.180Z,99136.91
2023-04-21T16:50:02.211Z,99134.54
2023-04-21T16:52:30.066Z,99135.48
2023-04-21T16:54:58.113Z,99136.43
2023-04-21T16:57:25.879Z,99138.73
2023-04-21T16:59:53.644Z,99135.07
2023-04-21T17:02:21.578Z,99138.42
2023-04-21T17:04:49.379Z,99136.98
2023-04-21T17:07:17.034Z,99137.75
2023-04-21T17:09:45.209Z,99139.45
2023-04-21T17:12:12.977Z,99142.34
2023-04-21T17:14:40.794Z,99141.90
2023-04-21T17:17:08.641Z,99136.11
2023-04-21T17:19:36.571Z,99141.73
2023-04-21T17:22:04.338Z,99140.95
2023-04-21T17:24:45.002Z,99140.77
2023-04-21T17:27:19.422Z,99139.95
2023-04-21T17:29:47.200Z,99139.95
2023-04-21T17:32:15.161Z,99139.96
2023-04-21T17:34:43.048Z,99139.94
2023-04-21T17:37:10.684Z,99137.79
2023-04-21T17:39:38.853Z,99142.46
2023-04-21T17:42:06.832Z,99141.83
2023-04-21T17:44:34.507Z,99143.94
2023-04-21T17:47:03.478Z,99147.23
2023-04-21T17:49:31.247Z,99145.64
2023-04-21T17:51:59.013Z,99144.56
2023-04-21T17:54:26.893Z,99151.38
2023-04-21T17:56:54.741Z,99153.76
2023-04-21T17:59:22.512Z,99149.30
2023-04-21T18:01:50.212Z,99154.48
2023-04-21T18:04:18.639Z,99153.20
2023-04-21T18:06:46.619Z,99153.86
2023-04-21T18:09:14.284Z,99155.85
2023-04-21T18:11:42.361Z,99160.38
2023-04-21T18:14:10.393Z,99163.69
2023-04-21T18:16:38.119Z,99165.38
2023-04-21T18:19:05.855Z,99169.29
2023-04-21T18:21:33.815Z,99171.15
2023-04-21T18:24:03.911Z,99168.74
2023-04-21T18:26:33.752Z,99167.60
2023-04-21T18:29:03.095Z,99168.73
2023-04-21T18:31:31.988Z,99171.95
2023-04-21T18:34:00.359Z,99172.14
2023-04-21T18:36:30.794Z,99165.15
2023-04-21T18:39:00.255Z,99170.92
2023-04-21T18:41:28.023Z,99172.55
2023-04-21T18:43:55.806Z,99176.96
2023-04-21T18:46:23.598Z,99179.21
2023-04-21T18:48:51.409Z,99176.22
2023-04-21T18:51:19.091Z,99175.33
2023-04-21T18:53:46.836Z,99173.18
2023-04-21T18:56:14.620Z,99174.89
2023-04-21T18:58:42.383Z,99177.16
2023-04-21T19:01:10.158Z,99174.15
2023-04-21T19:03:38.200Z,99173.88
2023-04-21T19:06:06.066Z,99174.33
2023-04-21T19:08:42.281Z,99178.48
2023-04-21T19:11:10.708Z,99179.09
2023-04-21T19:13:38.373Z,99180.08
2023-04-21T19:16:06.291Z,99177.55
2023-04-21T19:18:34.205Z,99180.29
2023-04-21T19:21:01.876Z,99175.31
2023-04-21T19:23:29.533Z,99172.41
2023-04-21T19:25:57.734Z,99174.25
2023-04-21T19:28:25.571Z,99173.11
2023-04-21T19:30:53.204Z,99175.45
2023-04-21T19:33:20.978Z,99171.85
2023-04-21T19:35:49.167Z,99173.51
2023-04-21T19:38:16.936Z,99172.01
2023-04-21T19:40:45.199Z,99172.27
2023-04-21T19:43:15.240Z,99176.22
2023-04-21T19:45:43.182Z,99172.16
2023-04-21T19:48:11.384Z,99174.74
2023-04-21T19:50:39.143Z,99172.77
2023-04-21T19:53:06.796Z,99175.27
2023-04-21T19:55:34.568Z,99176.23
2023-04-21T19:58:02.430Z,99177.17
2023-04-21T20:00:30.194Z,99179.02
2023-04-21T20:02:58.108Z,99176.78
2023-04-21T20:05:26.137Z,99178.06
2023-04-21T20:07:54.000Z,99175.17
2023-04-21T20:10:22.372Z,99178.21
2023-04-21T20:12:50.037Z,99177.98
2023-04-21T20:15:17.806Z,99179.64
2023-04-21T20:17:47.755Z,99180.43
2023-04-21T20:20:16.581Z,99179.08
2023-04-21T20:22:44.277Z,99180.64
2023-04-21T20:25:13.167Z,99178.55
2023-04-21T20:27:41.123Z,99182.08
2023-04-21T20:30:08.895Z,99182.84
2023-04-21T20:32:36.890Z,99183.60
2023-04-21T20:35:05.662Z,99182.83
2023-04-21T20:37:33.720Z,99181.69
2023-04-21T20:40:03.634Z,99183.66
2023-04-21T20:42:31.396Z,99184.73
2023-04-21T20:45:02.458Z,99183.05
2023-04-21T20:47:30.520Z,99186.58
2023-04-21T20:49:59.191Z,99185.78
2023-04-21T20:52:27.065Z,99187.24
2023-04-21T20:54:54.840Z,99187.47
2023-04-21T20:57:22.698Z,99184.38
2023-04-21T20:59:50.354Z,99184.11
2023-04-21T21:02:18.186Z,99183.99
2023-04-21T21:04:47.418Z,99184.21
2023-04-21T21:07:15.183Z,99190.54
2023-04-21T21:09:42.946Z,99191.78
2023-04-21T21:12:10.608Z,99190.23
2023-04-21T21:14:38.284Z,99187.48
2023-04-21T21:17:06.343Z,99187.50
2023-04-21T21:19:34.215Z,99189.62
2023-04-21T21:22:01.865Z,99185.97
2023-04-21T21:24:29.534Z,99184.58
2023-04-21T21:26:58.418Z,99184.27
2023-04-21T21:29:26.285Z,99185.19
2023-04-21T21:31:54.322Z,99186.11
2023-04-21T21:34:22.225Z,99187.57
2023-04-21T21:36:49.889Z,99187.26
2023-04-21T21:39:17.754Z,99187.46
2023-04-21T21:41:45.515Z,99181.57
2023-04-21T21:44:13.287Z,99184.03
2023-04-21T21:46:41.476Z,99188.96
2023-04-21T21:49:09.423Z,99188.81
2023-04-21T21:51:37.097Z,99189.36
2023-04-21T21:54:05.773Z,99193.04
2023-04-21T21:56:33.432Z,99189.91
2023-04-21T21:59:01.213Z,99188.20
2023-04-21T22:41:13.978Z,99197.89
2023-04-21T22:43:41.738Z,99201.02
2023-04-21T22:46:09.509Z,99198.43
2023-04-21T22:48:38.495Z,99203.48
2023-04-21T22:51:06.573Z,99203.31
2023-04-21T22:53:34.347Z,99201.57
2023-04-21T22:56:02.105Z,99199.83
2023-04-21T22:58:29.865Z,99202.10
2023-04-21T23:00:57.545Z,99200.73
2023-04-21T23:03:25.623Z,99201.42
2023-04-21T23:05:53.561Z,99203.70
2023-04-21T23:08:21.330Z,99205.96
2023-04-21T23:10:49.096Z,99207.36
2023-04-21T23:13:16.860Z,99207.02
2023-04-21T23:15:44.526Z,99204.42
2023-04-21T23:18:12.280Z,99201.13
2023-04-21T23:20:39.953Z,99201.99
2023-04-21T23:23:07.677Z,99199.20
2023-04-21T23:25:36.398Z,99198.35
2023-04-21T23:28:04.181Z,99199.23
2023-04-21T23:30:31.924Z,99192.95
2023-04-21T23:32:59.679Z,99192.79
2023-04-21T23:35:27.563Z,99195.75
2023-04-21T23:37:55.317Z,99198.20
2023-04-21T23:40:23.080Z,99196.82
2023-04-21T23:42:50.842Z,99195.62
2023-04-21T23:45:18.606Z,99199.11
2023-04-21T23:47:46.382Z,99200.50
2023-04-21T23:50:14.142Z,99197.89
2023-04-21T23:52:43.332Z,99196.16
2023-04-21T23:55:12.426Z,99196.34
2023-04-21T23:57:40.323Z,99189.22
